Time;durP1;ratioP1;P1;durP2;ratioP2;P2;SDS_P1;SDS_P2;PMS_P1;PMS_P2;Temp;Humidity;BMP_temperature;BMP_pressure;BME280_temperature;BME280_humidity;BME280_pressure;Samples;Min_cycle;Max_cycle;Signal;HPM_P1;HPM_P2
2022/06/10 00:00:42;;;;;;;9.07;2.30;;;14.30;99.90;;;;;;5005488;28;20542;-79
2022/06/10 00:03:13;;;;;;;11.70;2.58;;;14.30;99.90;;;;;;5016421;28;20115;-78
2022/06/10 00:05:40;;;;;;;8.85;2.30;;;14.30;99.90;;;;;;5014399;28;20334;-78
2022/06/10 00:08:08;;;;;;;8.60;2.50;;;14.30;99.90;;;;;;4998471;28;20050;-78
2022/06/10 00:10:35;;;;;;;8.27;2.78;;;14.20;99.90;;;;;;5003950;28;20572;-78
2022/06/10 00:13:01;;;;;;;8.52;2.50;;;14.20;99.90;;;;;;5032868;28;20046;-78
2022/06/10 00:15:27;;;;;;;9.50;2.67;;;14.20;99.90;;;;;;5037370;28;20065;-78
2022/06/10 00:17:53;;;;;;;12.13;2.92;;;14.20;99.90;;;;;;5037143;28;20052;-78
2022/06/10 00:20:21;;;;;;;10.18;2.42;;;14.10;99.90;;;;;;5031928;28;20066;-78
2022/06/10 00:22:47;;;;;;;8.80;2.78;;;14.10;99.90;;;;;;5015276;28;20080;-78
2022/06/10 00:25:13;;;;;;;11.35;3.05;;;14.10;99.90;;;;;;5037566;28;20442;-78
2022/06/10 00:27:39;;;;;;;10.80;2.75;;;14.10;99.90;;;;;;4996389;28;20046;-78
2022/06/10 00:30:07;;;;;;;7.90;2.53;;;14.10;99.90;;;;;;5000735;28;20492;-79
2022/06/10 00:32:33;;;;;;;9.88;3.10;;;14.00;99.90;;;;;;5020932;28;20037;-79
2022/06/10 00:34:59;;;;;;;11.18;2.40;;;14.00;99.90;;;;;;5005707;28;20110;-78
2022/06/10 00:37:25;;;;;;;6.28;2.50;;;14.00;99.90;;;;;;4987058;28;20054;-79
2022/06/10 00:39:51;;;;;;;6.90;2.20;;;14.00;99.90;;;;;;5036697;28;20049;-78
2022/06/10 00:42:17;;;;;;;11.68;2.90;;;13.90;99.90;;;;;;5003983;28;20120;-78
2022/06/10 00:44:44;;;;;;;7.28;2.25;;;13.90;99.90;;;;;;5037779;28;20290;-78
2022/06/10 00:47:35;;;;;;;8.95;2.47;;;13.90;99.90;;;;;;5036001;28;20048;-79
2022/06/10 00:50:13;;;;;;;10.02;2.25;;;13.80;99.90;;;;;;5034906;28;20099;-79
2022/06/10 00:52:49;;;;;;;9.23;2.72;;;13.80;99.90;;;;;;4994332;28;20492;-79
2022/06/10 00:55:15;;;;;;;8.85;2.80;;;13.80;99.90;;;;;;5007896;28;20057;-77
2022/06/10 00:57:45;;;;;;;11.23;2.30;;;13.70;99.90;;;;;;4986646;28;20045;-77
2022/06/10 01:00:17;;;;;;;9.88;2.72;;;13.70;99.90;;;;;;5036153;28;20129;-77
2022/06/10 01:02:43;;;;;;;10.10;2.50;;;13.70;99.90;;;;;;4999768;28;20049;-77
2022/06/10 01:05:16;;;;;;;7.75;2.47;;;13.70;99.90;;;;;;5015292;28;20447;-76
2022/06/10 01:08:07;;;;;;;6.07;2.45;;;13.70;99.90;;;;;;5036187;28;20061;-76
2022/06/10 01:10:56;;;;;;;6.75;2.30;;;13.60;99.90;;;;;;5036280;28;20052;-76
2022/06/10 01:13:27;;;;;;;9.18;2.72;;;13.60;99.90;;;;;;5014799;28;20050;-76
2022/06/10 01:15:59;;;;;;;8.13;2.55;;;13.60;99.90;;;;;;5037772;28;20049;-77
2022/06/10 01:18:53;;;;;;;9.95;3.15;;;13.60;99.90;;;;;;5001653;28;20523;-78
2022/06/10 01:21:35;;;;;;;8.38;3.10;;;13.50;99.90;;;;;;5036222;28;20096;-77
2022/06/10 01:24:15;;;;;;;8.32;2.78;;;13.50;99.90;;;;;;5036122;28;20058;-77
2022/06/10 01:29:59;;;;;;;7.63;2.85;;;13.50;99.90;;;;;;5035976;28;20045;-76
2022/06/10 01:32:47;;;;;;;12.18;3.05;;;13.40;99.90;;;;;;5019422;28;20050;-76
2022/06/10 01:35:29;;;;;;;10.80;3.17;;;13.50;99.90;;;;;;5002298;28;20046;-77
2022/06/10 01:38:05;;;;;;;12.38;2.95;;;13.40;99.90;;;;;;4996854;28;20045;-77
2022/06/10 01:40:36;;;;;;;9.65;3.53;;;13.40;99.90;;;;;;5018515;28;20125;-78
2022/06/10 01:43:09;;;;;;;11.65;3.50;;;13.40;99.90;;;;;;5036743;28;20049;-78
2022/06/10 01:45:35;;;;;;;13.90;3.70;;;13.30;99.90;;;;;;5018696;28;20057;-77
2022/06/10 01:48:13;;;;;;;15.38;3.67;;;13.30;99.90;;;;;;5035573;28;20053;-77
2022/06/10 01:50:55;;;;;;;12.38;3.05;;;13.30;99.90;;;;;;5019380;28;20497;-77
2022/06/10 01:53:34;;;;;;;14.73;3.25;;;13.30;99.90;;;;;;5013520;28;20045;-78
2022/06/10 01:56:09;;;;;;;12.48;3.03;;;13.30;99.90;;;;;;5019417;28;20054;-78
2022/06/10 01:58:41;;;;;;;12.23;3.33;;;13.30;99.90;;;;;;5012647;28;20152;-78
2022/06/10 02:01:19;;;;;;;11.55;2.80;;;13.30;99.90;;;;;;5002225;28;20394;-77
2022/06/10 02:03:50;;;;;;;9.30;2.72;;;13.40;99.90;;;;;;5034814;28;20058;-77
2022/06/10 02:06:43;;;;;;;10.48;3.15;;;13.40;99.90;;;;;;5035542;28;20072;-77
2022/06/10 02:09:17;;;;;;;8.63;2.58;;;13.40;99.90;;;;;;4983173;28;20066;-78
2022/06/10 02:11:49;;;;;;;8.10;2.88;;;13.40;99.90;;;;;;4998079;28;20132;-78
2022/06/10 02:14:20;;;;;;;11.73;2.70;;;13.40;99.90;;;;;;4997164;28;20061;-77
2022/06/10 02:16:49;;;;;;;9.48;2.38;;;13.40;99.90;;;;;;5034096;28;20115;-77
2022/06/10 02:19:39;;;;;;;9.88;2.85;;;13.40;99.90;;;;;;5003083;28;20046;-77
2022/06/10 02:22:12;;;;;;;12.50;2.72;;;13.40;99.90;;;;;;5018714;28;20050;-78
2022/06/10 02:24:45;;;;;;;11.15;3.00;;;13.40;99.90;;;;;;5034196;28;20388;-78
2022/06/10 02:27:20;;;;;;;10.25;2.90;;;13.40;99.90;;;;;;4980435;28;20076;-77
2022/06/10 02:30:06;;;;;;;8.13;2.63;;;13.40;99.90;;;;;;5017671;28;20378;-77
2022/06/10 02:32:34;;;;;;;10.55;2.50;;;13.40;99.90;;;;;;5036318;28;20128;-78
2022/06/10 02:35:01;;;;;;;11.10;2.85;;;13.40;99.90;;;;;;5035157;28;20061;-77
2022/06/10 02:38:06;;;;;;;10.45;3.10;;;13.40;99.90;;;;;;5002514;28;20053;-77
2022/06/10 02:40:45;;;;;;;9.05;2.58;;;13.50;99.90;;;;;;5035333;28;20106;-78
2022/06/10 02:43:20;;;;;;;9.82;2.33;;;13.50;99.90;;;;;;5035835;28;20061;-77
2022/06/10 02:46:07;;;;;;;10.45;2.50;;;13.50;99.90;;;;;;5035571;28;20320;-78
2022/06/10 02:48:59;;;;;;;11.90;2.75;;;13.50;99.90;;;;;;5012002;28;20100;-78
2022/06/10 02:51:26;;;;;;;10.95;3.10;;;13.60;99.90;;;;;;5015208;28;20043;-77
2022/06/10 02:53:52;;;;;;;10.35;2.63;;;13.60;99.90;;;;;;5017998;28;20092;-78
2022/06/10 02:56:22;;;;;;;9.45;2.95;;;13.60;99.90;;;;;;5037773;28;20058;-77
2022/06/10 03:01:56;;;;;;;9.40;2.67;;;13.60;99.90;;;;;;5017681;28;20053;-78
2022/06/10 03:04:59;;;;;;;9.75;2.58;;;13.60;99.90;;;;;;5038709;28;20404;-78
2022/06/10 03:07:38;;;;;;;13.98;2.63;;;13.60;99.90;;;;;;5038720;28;20480;-77
2022/06/10 03:10:32;;;;;;;8.30;2.92;;;13.60;99.90;;;;;;5016323;28;20085;-77
2022/06/10 03:13:36;;;;;;;10.27;2.47;;;13.60;99.90;;;;;;5037372;28;20077;-77
2022/06/10 03:16:26;;;;;;;8.02;2.70;;;13.60;99.90;;;;;;5039327;28;20492;-78
2022/06/10 03:18:54;;;;;;;10.10;2.70;;;13.60;99.90;;;;;;5036846;28;20049;-78
2022/06/10 03:21:23;;;;;;;10.75;3.00;;;13.60;99.90;;;;;;5039228;28;20046;-77
2022/06/10 03:23:54;;;;;;;13.57;3.05;;;13.60;99.90;;;;;;5015289;28;20041;-78
2022/06/10 03:26:32;;;;;;;10.18;3.03;;;13.70;99.90;;;;;;5039739;28;20069;-77
2022/06/10 03:29:21;;;;;;;9.27;2.70;;;13.70;99.90;;;;;;5007806;28;20046;-77
2022/06/10 03:31:55;;;;;;;9.63;2.50;;;13.70;99.90;;;;;;4987639;28;20054;-77
2022/06/10 03:34:37;;;;;;;8.52;2.95;;;13.80;99.90;;;;;;5041334;28;20851;-78
2022/06/10 03:37:05;;;;;;;9.25;2.60;;;13.80;99.90;;;;;;4986130;28;20056;-78
2022/06/10 03:39:31;;;;;;;8.98;2.90;;;13.80;99.90;;;;;;4991254;28;20065;-78
2022/06/10 03:42:03;;;;;;;12.82;2.83;;;13.90;99.90;;;;;;5017890;28;20054;-78
2022/06/10 03:44:31;;;;;;;10.00;2.63;;;13.90;99.90;;;;;;5018222;28;20085;-78
2022/06/10 03:46:57;;;;;;;9.00;3.05;;;14.00;99.90;;;;;;5019071;28;20049;-78
2022/06/10 03:49:35;;;;;;;10.23;2.95;;;14.00;99.90;;;;;;5008355;28;20061;-78
2022/06/10 03:52:01;;;;;;;12.02;2.70;;;14.10;99.90;;;;;;5038782;28;20362;-77
2022/06/10 03:54:27;;;;;;;9.45;2.80;;;14.10;99.90;;;;;;5040265;28;20042;-78
2022/06/10 03:56:53;;;;;;;10.90;2.85;;;14.20;99.90;;;;;;4990934;28;20504;-78
2022/06/10 03:59:19;;;;;;;8.82;2.88;;;14.20;99.90;;;;;;4990572;28;20077;-78
2022/06/10 04:01:46;;;;;;;5.68;2.20;;;14.30;99.90;;;;;;5038018;28;20126;-78
2022/06/10 04:04:12;;;;;;;11.82;3.03;;;14.30;99.90;;;;;;5022810;28;20054;-78
2022/06/10 04:06:38;;;;;;;6.72;2.30;;;14.30;99.90;;;;;;5001892;28;20496;-78
2022/06/10 04:09:04;;;;;;;10.90;2.80;;;14.30;99.90;;;;;;5019353;28;20048;-78
2022/06/10 04:11:30;;;;;;;9.27;2.42;;;14.30;99.90;;;;;;5015973;28;20415;-79
2022/06/10 04:13:56;;;;;;;6.90;1.90;;;14.40;99.90;;;;;;5003043;28;20049;-79
2022/06/10 04:16:21;;;;;;;9.88;2.45;;;14.40;99.90;;;;;;5006893;28;20054;-79
2022/06/10 04:18:47;;;;;;;9.18;3.28;;;14.40;99.90;;;;;;5006093;28;20049;-79
2022/06/10 04:21:13;;;;;;;8.68;2.35;;;14.50;99.90;;;;;;5039342;28;20115;-79
2022/06/10 04:23:38;;;;;;;9.30;2.22;;;14.60;99.90;;;;;;5007858;28;20057;-79
2022/06/10 04:26:04;;;;;;;10.30;2.67;;;14.60;99.90;;;;;;5001801;28;20125;-79
2022/06/10 04:28:30;;;;;;;8.35;2.17;;;14.70;99.90;;;;;;5018540;28;20041;-78
2022/06/10 04:30:56;;;;;;;6.00;2.20;;;14.80;99.90;;;;;;5000231;28;20060;-79
2022/06/10 04:33:22;;;;;;;7.68;2.30;;;14.90;99.90;;;;;;5038999;28;20377;-80
2022/06/10 04:35:50;;;;;;;8.75;2.65;;;15.00;99.90;;;;;;5022056;28;20042;-79
2022/06/10 04:38:19;;;;;;;8.52;2.25;;;15.00;99.90;;;;;;5022713;28;20057;-77
2022/06/10 04:40:46;;;;;;;10.80;2.72;;;15.10;99.90;;;;;;5039197;28;20046;-78
2022/06/10 04:43:12;;;;;;;7.78;2.50;;;15.20;99.90;;;;;;5022460;28;20132;-77
2022/06/10 04:45:48;;;;;;;7.38;2.55;;;15.20;99.90;;;;;;5039385;28;20207;-78
2022/06/10 04:48:14;;;;;;;7.53;2.58;;;15.30;99.90;;;;;;5038400;28;20085;-78
2022/06/10 04:50:42;;;;;;;8.40;2.90;;;15.30;99.90;;;;;;5039023;28;20081;-77
2022/06/10 04:53:08;;;;;;;7.82;2.60;;;15.30;99.90;;;;;;5006647;28;20065;-77
2022/06/10 04:55:34;;;;;;;8.23;2.65;;;15.30;99.90;;;;;;5039367;28;20077;-77
2022/06/10 04:58:00;;;;;;;9.60;2.83;;;15.30;99.90;;;;;;5006301;28;20081;-78
2022/06/10 05:00:29;;;;;;;10.90;2.70;;;15.30;99.90;;;;;;4990581;28;20057;-78
2022/06/10 05:02:54;;;;;;;10.48;2.63;;;15.30;99.90;;;;;;4986229;28;20085;-78
2022/06/10 05:05:21;;;;;;;10.10;2.63;;;15.30;99.90;;;;;;5017614;28;20093;-77
2022/06/10 05:07:47;;;;;;;12.05;3.97;;;15.30;99.90;;;;;;5004642;28;20049;-80
2022/06/10 05:10:15;;;;;;;12.68;2.90;;;15.30;99.90;;;;;;5038410;28;20064;-79
2022/06/10 05:12:42;;;;;;;10.40;2.83;;;15.30;99.90;;;;;;5038569;28;20054;-79
2022/06/10 05:15:08;;;;;;;6.85;2.55;;;15.30;99.90;;;;;;5038172;28;20048;-80
2022/06/10 05:17:34;;;;;;;11.65;2.92;;;15.40;99.90;;;;;;5004536;28;20050;-78
2022/06/10 05:20:00;;;;;;;8.25;2.50;;;15.30;99.90;;;;;;5037945;28;20108;-78
2022/06/10 05:22:26;;;;;;;10.82;3.20;;;15.40;99.90;;;;;;5000111;28;20501;-80
2022/06/10 05:24:51;;;;;;;10.02;3.03;;;15.40;99.90;;;;;;5034700;28;20093;-79
2022/06/10 05:27:17;;;;;;;9.30;2.70;;;15.40;99.90;;;;;;4988173;28;20404;-80
2022/06/10 05:29:43;;;;;;;5.50;2.70;;;15.50;99.90;;;;;;4984707;28;20050;-79
2022/06/10 05:32:08;;;;;;;11.80;3.10;;;15.50;99.90;;;;;;5016420;28;20049;-80
2022/06/10 05:34:46;;;;;;;7.22;2.85;;;15.50;99.90;;;;;;5038331;28;20489;-79
2022/06/10 05:37:18;;;;;;;6.63;3.10;;;15.50;99.90;;;;;;4990310;28;20056;-78
2022/06/10 05:39:44;;;;;;;9.15;3.10;;;15.60;99.90;;;;;;5020831;28;20065;-79
2022/06/10 05:42:11;;;;;;;11.98;3.03;;;15.60;99.90;;;;;;5001716;28;20115;-78
2022/06/10 05:44:45;;;;;;;10.75;3.10;;;15.60;99.90;;;;;;5005102;28;20061;-78
2022/06/10 05:47:21;;;;;;;8.68;3.10;;;15.60;99.90;;;;;;5036768;28;20045;-78
2022/06/10 05:49:50;;;;;;;7.45;3.10;;;15.70;99.90;;;;;;4985768;28;20509;-76
2022/06/10 05:52:19;;;;;;;8.38;3.40;;;15.70;99.90;;;;;;5018382;28;20068;-77
2022/06/10 05:54:46;;;;;;;9.40;3.25;;;15.70;99.90;;;;;;5004077;28;20516;-75
2022/06/10 05:57:13;;;;;;;8.23;4.00;;;15.80;99.90;;;;;;5006152;28;20049;-75
2022/06/10 05:59:40;;;;;;;8.52;4.00;;;15.90;99.90;;;;;;5005350;28;20046;-76
2022/06/10 06:02:10;;;;;;;6.20;3.25;;;15.90;99.90;;;;;;4996622;28;20060;-76
2022/06/10 06:04:36;;;;;;;7.70;3.10;;;15.90;99.90;;;;;;5021309;28;20046;-76
2022/06/10 06:07:03;;;;;;;7.75;2.70;;;16.00;99.90;;;;;;5034734;28;20054;-77
2022/06/10 06:09:29;;;;;;;7.47;2.40;;;16.00;99.90;;;;;;5036230;28;20054;-77
2022/06/10 06:11:56;;;;;;;6.57;2.40;;;16.00;99.90;;;;;;5012317;28;20049;-77
2022/06/10 06:14:25;;;;;;;5.80;2.20;;;16.00;99.90;;;;;;4997737;28;20057;-76
2022/06/10 06:16:58;;;;;;;7.28;2.70;;;16.10;99.90;;;;;;5002420;28;20515;-77
2022/06/10 06:19:25;;;;;;;4.18;2.20;;;16.10;99.90;;;;;;4995196;28;20057;-76
2022/06/10 06:21:51;;;;;;;5.07;2.30;;;16.10;99.90;;;;;;5036418;28;20081;-77
2022/06/10 06:24:17;;;;;;;7.95;2.75;;;16.10;99.90;;;;;;5034604;28;20133;-76
2022/06/10 06:26:43;;;;;;;6.05;2.47;;;16.00;99.90;;;;;;4984303;28;20050;-75
2022/06/10 06:29:09;;;;;;;6.25;2.70;;;16.10;99.90;;;;;;5014351;28;20089;-76
2022/06/10 06:31:35;;;;;;;4.40;2.92;;;16.10;99.90;;;;;;5021543;28;20500;-76
2022/06/10 06:34:01;;;;;;;4.40;2.75;;;16.10;99.90;;;;;;5003433;28;20056;-76
2022/06/10 06:36:29;;;;;;;4.93;3.00;;;16.10;99.90;;;;;;5036688;28;20053;-76
2022/06/10 06:38:54;;;;;;;4.03;2.78;;;16.10;99.90;;;;;;5004668;28;20046;-78
2022/06/10 06:41:22;;;;;;;4.97;2.58;;;16.10;99.90;;;;;;4986994;28;21608;-75
2022/06/10 06:43:47;;;;;;;5.22;2.90;;;16.10;99.90;;;;;;5000256;28;20046;-76
2022/06/10 06:46:16;;;;;;;5.15;2.95;;;16.10;99.90;;;;;;5034454;28;20042;-76
2022/06/10 06:48:43;;;;;;;5.13;2.97;;;16.10;99.90;;;;;;4978833;28;20104;-78
2022/06/10 06:51:11;;;;;;;5.60;3.10;;;16.10;99.90;;;;;;5003982;28;20074;-77
2022/06/10 06:53:36;;;;;;;6.72;3.50;;;16.10;99.90;;;;;;5036758;28;20104;-76
2022/06/10 06:56:06;;;;;;;6.05;3.10;;;16.10;99.90;;;;;;5013874;28;20050;-76
2022/06/10 06:58:32;;;;;;;6.60;3.70;;;16.10;99.90;;;;;;4970325;28;20038;-76
2022/06/10 07:00:58;;;;;;;6.05;3.42;;;16.10;99.90;;;;;;5001609;28;20048;-78
2022/06/10 07:03:25;;;;;;;5.85;3.90;;;16.10;99.90;;;;;;5015094;28;20053;-76
2022/06/10 07:05:52;;;;;;;5.80;3.72;;;16.10;99.90;;;;;;4984766;28;20453;-78
2022/06/10 07:08:17;;;;;;;5.65;3.78;;;16.10;99.90;;;;;;5001040;28;20060;-78
2022/06/10 07:10:44;;;;;;;6.82;4.03;;;16.10;99.90;;;;;;4984908;28;20053;-77
2022/06/10 07:13:10;;;;;;;6.80;3.65;;;16.10;99.90;;;;;;5013646;28;20054;-78
2022/06/10 07:15:41;;;;;;;8.90;3.75;;;16.20;99.90;;;;;;5035822;28;20061;-77
2022/06/10 07:18:07;;;;;;;7.35;3.50;;;16.20;99.90;;;;;;5019860;28;20192;-77
2022/06/10 07:20:36;;;;;;;7.07;3.58;;;16.20;99.90;;;;;;5001482;28;20233;-76
2022/06/10 07:23:03;;;;;;;7.90;3.85;;;16.20;99.90;;;;;;5020260;28;20041;-77
2022/06/10 07:25:31;;;;;;;5.55;3.30;;;16.30;99.90;;;;;;5004011;28;20061;-76
2022/06/10 07:27:58;;;;;;;7.22;3.47;;;16.30;99.90;;;;;;5036820;28;20046;-77
2022/06/10 07:30:27;;;;;;;7.75;3.17;;;16.30;99.90;;;;;;4998492;28;20049;-77
2022/06/10 07:32:53;;;;;;;7.93;3.38;;;16.30;99.90;;;;;;5015888;28;20085;-77
2022/06/10 07:35:21;;;;;;;6.22;3.50;;;16.40;99.90;;;;;;5036072;28;20069;-77
2022/06/10 07:37:48;;;;;;;4.57;2.88;;;16.40;99.90;;;;;;5030694;28;20061;-77
2022/06/10 07:43:05;;;;;;;6.05;3.22;;;16.40;99.90;;;;;;5036963;28;20081;-77
2022/06/10 07:45:32;;;;;;;5.60;2.78;;;16.40;99.90;;;;;;5016929;28;20481;-77
2022/06/10 07:47:58;;;;;;;6.18;3.00;;;16.40;99.90;;;;;;5039391;28;20049;-77
2022/06/10 07:50:24;;;;;;;6.63;3.13;;;16.40;99.90;;;;;;5023683;28;20057;-77
2022/06/10 07:52:50;;;;;;;7.30;3.42;;;16.50;99.90;;;;;;5039121;28;20546;-78
2022/06/10 07:55:19;;;;;;;5.63;3.13;;;16.50;99.90;;;;;;5017648;28;20058;-77
2022/06/10 07:57:45;;;;;;;5.20;2.67;;;16.50;99.90;;;;;;5017927;28;20045;-78
2022/06/10 08:00:13;;;;;;;6.85;3.15;;;16.60;99.90;;;;;;5017391;28;20050;-76
2022/06/10 08:02:40;;;;;;;7.63;3.03;;;16.70;99.90;;;;;;5039412;28;20038;-78
2022/06/10 08:05:09;;;;;;;7.70;3.83;;;16.70;99.90;;;;;;5019036;28;20064;-78
2022/06/10 08:07:37;;;;;;;6.10;3.20;;;16.70;99.90;;;;;;5004445;28;21030;-78
2022/06/10 08:10:05;;;;;;;5.55;2.80;;;16.70;99.90;;;;;;5006974;28;20056;-78
2022/06/10 08:12:31;;;;;;;5.57;3.10;;;16.80;99.90;;;;;;5002536;28;20056;-78
2022/06/10 08:14:57;;;;;;;6.35;3.40;;;16.70;99.90;;;;;;5000830;28;20050;-77
2022/06/10 08:17:23;;;;;;;6.57;3.80;;;16.80;99.90;;;;;;5017015;28;20042;-78
2022/06/10 08:19:48;;;;;;;8.98;4.35;;;16.80;99.90;;;;;;5005758;28;20121;-77
2022/06/10 08:22:32;;;;;;;6.72;4.40;;;16.70;99.90;;;;;;5022268;28;20046;-78
2022/06/10 08:24:59;;;;;;;7.78;4.82;;;16.70;99.90;;;;;;5039087;28;20107;-78
2022/06/10 08:27:25;;;;;;;7.18;4.55;;;16.70;99.90;;;;;;5006548;28;20057;-78
2022/06/10 08:29:51;;;;;;;11.43;5.78;;;16.70;99.90;;;;;;5003331;28;20066;-78
2022/06/10 08:32:17;;;;;;;11.48;6.15;;;16.80;99.90;;;;;;5018338;28;20058;-78
2022/06/10 08:34:42;;;;;;;15.18;6.95;;;16.80;99.90;;;;;;5038239;28;20053;-78
2022/06/10 08:37:10;;;;;;;12.57;7.22;;;16.90;99.90;;;;;;4988122;28;20054;-78
2022/06/10 08:39:35;;;;;;;12.40;7.50;;;16.90;99.90;;;;;;5005875;28;20405;-78
2022/06/10 08:42:26;;;;;;;11.60;7.65;;;16.90;99.90;;;;;;5006771;28;20057;-80
2022/06/10 08:44:55;;;;;;;10.18;7.53;;;17.00;99.90;;;;;;5018543;28;20121;-80
2022/06/10 08:48:13;;;;;;;11.07;8.32;;;17.10;99.90;;;;;;5006096;28;20547;-76
2022/06/10 08:50:59;;;;;;;11.80;7.20;;;17.10;99.90;;;;;;4995195;28;20069;-77
2022/06/10 08:54:14;;;;;;;12.52;6.55;;;17.20;99.90;;;;;;5007701;28;20048;-78
2022/06/10 08:56:43;;;;;;;11.55;5.47;;;17.30;99.90;;;;;;4989445;28;20096;-80
2022/06/10 08:59:12;;;;;;;12.35;5.38;;;17.40;99.90;;;;;;5015732;28;20049;-80
2022/06/10 09:02:08;;;;;;;10.80;6.22;;;17.50;99.90;;;;;;5039129;28;20050;-77
2022/06/10 09:05:17;;;;;;;10.10;6.93;;;17.60;99.90;;;;;;5022799;28;20093;-78
2022/06/10 09:07:55;;;;;;;11.35;6.15;;;17.70;99.90;;;;;;5004508;28;20191;-77
2022/06/10 09:10:23;;;;;;;8.90;5.35;;;17.70;99.90;;;;;;5021192;28;20064;-77
2022/06/10 09:13:08;;;;;;;14.00;5.40;;;17.70;99.90;;;;;;5005992;28;20054;-76
2022/06/10 09:15:41;;;;;;;9.88;5.00;;;17.70;99.90;;;;;;5000891;28;20115;-80
2022/06/10 09:18:16;;;;;;;9.75;4.38;;;17.70;99.90;;;;;;5020994;28;20145;-79
2022/06/10 09:20:49;;;;;;;11.05;5.47;;;17.70;99.90;;;;;;5038453;28;20046;-77
2022/06/10 09:23:20;;;;;;;10.50;5.32;;;17.70;99.90;;;;;;5014610;28;20061;-76
2022/06/10 09:25:49;;;;;;;10.80;5.60;;;17.70;99.90;;;;;;5021542;28;20089;-76
2022/06/10 09:28:15;;;;;;;10.23;5.03;;;17.70;99.90;;;;;;5003590;28;20042;-77
2022/06/10 09:30:56;;;;;;;10.10;5.30;;;17.80;99.90;;;;;;5021379;28;20053;-76
2022/06/10 09:33:41;;;;;;;15.40;5.88;;;17.80;99.90;;;;;;5036771;28;20108;-77
2022/06/10 09:36:06;;;;;;;11.43;5.90;;;17.90;99.90;;;;;;5020992;28;20048;-77
2022/06/10 09:38:54;;;;;;;9.00;5.28;;;17.90;99.90;;;;;;5037140;28;20056;-77
2022/06/10 09:41:42;;;;;;;11.35;5.43;;;17.90;99.90;;;;;;5015806;28;20054;-77
2022/06/10 09:44:25;;;;;;;9.75;5.40;;;17.90;99.90;;;;;;5004192;28;20064;-77
2022/06/10 09:47:18;;;;;;;7.93;4.50;;;17.80;99.90;;;;;;5005932;28;20100;-77
2022/06/10 09:50:04;;;;;;;7.20;3.83;;;17.80;99.90;;;;;;5001026;28;20046;-77
2022/06/10 09:52:40;;;;;;;6.43;3.63;;;17.70;99.90;;;;;;5037392;28;20045;-77
2022/06/10 09:55:15;;;;;;;8.48;3.80;;;17.60;99.90;;;;;;4988167;28;20208;-76
2022/06/10 09:58:17;;;;;;;7.63;3.78;;;17.60;99.90;;;;;;5038073;28;20054;-76
2022/06/10 10:01:10;;;;;;;9.20;3.90;;;17.60;99.90;;;;;;5003704;28;20635;-76
2022/06/10 10:03:46;;;;;;;7.07;3.13;;;17.70;99.90;;;;;;5003687;28;20484;-77
2022/06/10 10:06:45;;;;;;;6.63;3.10;;;17.90;99.90;;;;;;5014134;28;20113;-77
2022/06/10 10:09:20;;;;;;;6.13;2.92;;;18.10;99.90;;;;;;4995025;28;20057;-77
2022/06/10 10:12:08;;;;;;;6.68;3.20;;;18.20;99.90;;;;;;5000903;28;20060;-78
2022/06/10 10:14:59;;;;;;;6.32;2.90;;;18.30;99.90;;;;;;5004120;28;20084;-76
2022/06/10 10:17:28;;;;;;;8.07;3.08;;;18.40;99.90;;;;;;5033683;28;20115;-77
2022/06/10 10:19:54;;;;;;;10.23;3.40;;;18.50;99.90;;;;;;5036632;28;20151;-76
2022/06/10 10:22:44;;;;;;;6.43;3.17;;;18.40;99.90;;;;;;5035823;28;20049;-77
2022/06/10 10:25:17;;;;;;;5.65;3.25;;;18.40;99.90;;;;;;5037374;28;20383;-76
2022/06/10 10:27:45;;;;;;;8.88;3.53;;;18.50;99.90;;;;;;4987747;28;20046;-76
2022/06/10 10:31:01;;;;;;;9.50;3.85;;;18.60;99.90;;;;;;5037578;28;20112;-77
2022/06/10 10:33:27;;;;;;;11.55;3.65;;;18.70;99.90;;;;;;4987872;28;20050;-76
2022/06/10 10:35:56;;;;;;;7.07;3.28;;;18.70;99.90;;;;;;5004806;28;20050;-76
2022/06/10 10:38:43;;;;;;;9.70;3.70;;;18.70;99.90;;;;;;5035595;28;20773;-76
2022/06/10 10:41:30;;;;;;;7.78;3.60;;;18.70;99.90;;;;;;5024026;28;20058;-76
2022/06/10 10:44:00;;;;;;;8.48;3.35;;;19.00;99.90;;;;;;5000335;28;20597;-76
2022/06/10 10:46:39;;;;;;;7.20;3.53;;;18.70;99.90;;;;;;5006564;28;20052;-76
2022/06/10 10:49:41;;;;;;;8.18;3.60;;;18.70;99.90;;;;;;5018662;28;20456;-76
2022/06/10 10:52:28;;;;;;;6.95;3.80;;;18.70;99.90;;;;;;4991924;28;20061;-77
2022/06/10 10:55:05;;;;;;;8.27;3.60;;;19.00;99.90;;;;;;5008158;28;20057;-76
2022/06/10 10:57:34;;;;;;;8.65;3.28;;;19.30;99.90;;;;;;5005941;28;20050;-76
2022/06/10 11:00:06;;;;;;;6.70;3.30;;;19.60;99.90;;;;;;5001963;28;20056;-77
2022/06/10 11:02:45;;;;;;;8.63;3.55;;;19.70;99.90;;;;;;5023422;28;20052;-77
2022/06/10 11:05:24;;;;;;;6.68;3.53;;;19.70;99.90;;;;;;5025421;28;20050;-76
2022/06/10 11:08:28;;;;;;;9.43;3.63;;;19.60;99.90;;;;;;5015500;28;20118;-77
2022/06/10 11:10:53;;;;;;;6.38;3.38;;;19.50;99.90;;;;;;5007668;28;20053;-77
2022/06/10 11:13:45;;;;;;;9.57;4.00;;;19.40;99.90;;;;;;5007147;28;20057;-78
2022/06/10 11:16:26;;;;;;;7.60;4.07;;;19.30;99.90;;;;;;5005644;28;20515;-77
2022/06/10 11:18:56;;;;;;;8.32;4.20;;;19.30;99.90;;;;;;5009746;28;20045;-75
2022/06/10 11:21:27;;;;;;;10.27;5.22;;;19.30;99.90;;;;;;5019851;28;20053;-76
2022/06/10 11:23:56;;;;;;;9.60;5.45;;;19.30;99.90;;;;;;5020992;28;20482;-76
2022/06/10 11:26:24;;;;;;;11.50;5.32;;;19.40;99.90;;;;;;5011088;28;20124;-76
2022/06/10 11:28:59;;;;;;;12.55;6.10;;;19.40;99.90;;;;;;5028049;28;20107;-79
2022/06/10 11:31:38;;;;;;;15.63;6.00;;;19.40;99.90;;;;;;5027525;28;20053;-77
2022/06/10 11:34:05;;;;;;;12.75;5.28;;;19.40;99.90;;;;;;5011173;28;20053;-78
2022/06/10 11:36:50;;;;;;;10.18;5.70;;;19.40;99.90;;;;;;5010505;28;20049;-77
2022/06/10 11:39:27;;;;;;;16.10;5.47;;;19.40;99.90;;;;;;5010525;28;20098;-78
2022/06/10 11:42:36;;;;;;;10.57;5.18;;;19.50;99.90;;;;;;5042752;28;20045;-77
2022/06/10 11:45:16;;;;;;;9.20;4.82;;;19.60;99.90;;;;;;4996773;28;20234;-77
2022/06/10 11:47:53;;;;;;;29.33;6.90;;;19.80;99.90;;;;;;5035715;28;20061;-77
2022/06/10 11:50:28;;;;;;;8.32;4.18;;;19.60;99.90;;;;;;4970686;28;20129;-78
2022/06/10 11:53:02;;;;;;;10.55;4.30;;;19.50;99.90;;;;;;5011126;28;20050;-78
2022/06/10 11:55:32;;;;;;;8.10;4.32;;;19.40;99.90;;;;;;4988096;28;20061;-78
2022/06/10 12:00:57;;;;;;;8.75;4.13;;;19.30;99.90;;;;;;4986486;28;20393;-78
2022/06/10 12:03:45;;;;;;;8.45;3.25;;;19.30;99.90;;;;;;4987958;28;20050;-80
2022/06/10 12:06:10;;;;;;;5.70;2.28;;;19.30;99.90;;;;;;5003806;28;20050;-78
2022/06/10 12:08:42;;;;;;;5.47;2.10;;;19.30;99.90;;;;;;5004279;28;20061;-78
2022/06/10 12:11:14;;;;;;;6.63;2.10;;;19.30;99.90;;;;;;5017247;28;20046;-78
2022/06/10 12:13:47;;;;;;;6.68;2.38;;;19.30;99.90;;;;;;4986883;28;20054;-78
2022/06/10 12:16:14;;;;;;;8.90;2.17;;;19.70;99.90;;;;;;5014630;28;20060;-77
2022/06/10 12:18:48;;;;;;;7.63;2.03;;;20.10;99.90;;;;;;4981177;28;20137;-77
2022/06/10 12:21:18;;;;;;;8.18;2.53;;;20.50;99.90;;;;;;4987663;28;20046;-77
2022/06/10 12:23:47;;;;;;;7.70;2.55;;;20.90;99.90;;;;;;5019419;28;20050;-77
2022/06/10 12:26:21;;;;;;;5.68;2.45;;;21.40;99.90;;;;;;5003201;28;20112;-76
2022/06/10 12:28:51;;;;;;;8.15;2.40;;;21.20;99.90;;;;;;5019923;28;20639;-75
2022/06/10 12:31:19;;;;;;;8.70;2.75;;;21.10;99.90;;;;;;5015034;28;20604;-75
2022/06/10 12:33:56;;;;;;;8.65;2.75;;;21.10;99.90;;;;;;5002508;28;20053;-75
2022/06/10 12:36:35;;;;;;;6.97;2.55;;;21.10;99.90;;;;;;5023397;28;20054;-75
2022/06/10 12:39:03;;;;;;;9.45;2.75;;;21.00;99.90;;;;;;5020629;28;20043;-75
2022/06/10 12:41:53;;;;;;;7.50;2.92;;;20.90;99.90;;;;;;5021196;28;20054;-75
2022/06/10 12:44:24;;;;;;;10.00;3.35;;;20.80;99.90;;;;;;4989068;28;20389;-75
2022/06/10 12:46:57;;;;;;;7.32;2.75;;;20.80;99.90;;;;;;4988196;28;20038;-75
2022/06/10 12:49:56;;;;;;;9.82;3.17;;;20.70;99.90;;;;;;4970382;28;20124;-75
2022/06/10 12:52:36;;;;;;;8.07;2.70;;;20.70;99.90;;;;;;4994177;28;20069;-75
2022/06/10 12:55:25;;;;;;;7.80;2.63;;;20.50;99.90;;;;;;4985872;28;20042;-75
2022/06/10 12:57:52;;;;;;;8.43;2.80;;;20.50;99.90;;;;;;5001670;28;20056;-77
2022/06/10 13:00:18;;;;;;;7.78;2.80;;;20.70;99.90;;;;;;4985620;28;20438;-76
2022/06/10 13:02:48;;;;;;;9.38;3.40;;;21.00;99.90;;;;;;4981590;28;20134;-76
2022/06/10 13:05:31;;;;;;;6.43;2.65;;;21.10;99.90;;;;;;4996224;28;20469;-76
2022/06/10 13:07:57;;;;;;;12.23;3.70;;;21.50;99.90;;;;;;5002459;28;20093;-76
2022/06/10 13:10:29;;;;;;;7.82;2.88;;;21.70;99.90;;;;;;4994967;28;20160;-75
2022/06/10 13:13:08;;;;;;;11.70;3.03;;;21.90;99.90;;;;;;4980739;28;20129;-76
2022/06/10 13:15:34;;;;;;;8.13;3.00;;;22.00;99.90;;;;;;5001540;28;20050;-77
2022/06/10 13:18:21;;;;;;;14.23;3.60;;;22.20;99.90;;;;;;5019799;28;20050;-77
2022/06/10 13:20:49;;;;;;;10.05;2.88;;;22.30;99.90;;;;;;4985209;28;20050;-77
2022/06/10 13:23:27;;;;;;;9.00;2.95;;;22.50;99.90;;;;;;4968535;28;20133;-77
2022/06/10 13:26:05;;;;;;;10.30;3.40;;;22.50;99.90;;;;;;4968611;28;20053;-82